createdAt,value
2023-03-26T00:01:12.778Z,1005.44
2023-03-26T00:05:08.901Z,1005.42
2023-03-26T00:10:08.449Z,1005.48
2023-03-26T00:15:08.465Z,1005.5
2023-03-26T00:20:08.519Z,1005.41
2023-03-26T00:25:08.537Z,1005.5
2023-03-26T00:30:08.610Z,1005.46
2023-03-26T00:35:08.701Z,1005.43
2023-03-26T00:40:08.824Z,1005.41
2023-03-26T00:45:08.873Z,1005.42
2023-03-26T00:50:09.134Z,1005.41
2023-03-26T00:55:08.132Z,1005.41
2023-03-26T01:00:08.280Z,1005.26
2023-03-26T01:05:08.602Z,1005.25
2023-03-26T01:10:08.722Z,1005.22
2023-03-26T01:15:08.742Z,1005.19
2023-03-26T01:20:14.315Z,1005.04
2023-03-26T01:25:08.418Z,1005.05
2023-03-26T01:30:18.438Z,1005.06
2023-03-26T01:35:08.502Z,1005.06
2023-03-26T01:40:08.521Z,1004.9
2023-03-26T01:45:08.558Z,1004.87
2023-03-26T01:50:08.646Z,1004.78
2023-03-26T01:55:08.761Z,1004.78
2023-03-26T02:00:08.848Z,1004.61
2023-03-26T02:05:08.907Z,1004.53
2023-03-26T02:10:08.962Z,1004.49
2023-03-26T02:15:08.002Z,1004.47
2023-03-26T02:20:08.033Z,1004.3
2023-03-26T02:25:08.066Z,1004.3
2023-03-26T02:30:08.085Z,1004.19
2023-03-26T02:35:08.111Z,1004.1
2023-03-26T02:40:08.223Z,1004.05
2023-03-26T02:45:08.336Z,1003.97
2023-03-26T02:50:08.362Z,1004.01
2023-03-26T02:55:08.407Z,1003.95
2023-03-26T03:00:08.458Z,1003.95
2023-03-26T03:05:08.502Z,1004.0
2023-03-26T03:10:08.573Z,1003.88
2023-03-26T03:15:08.639Z,1003.93
2023-03-26T03:20:08.674Z,1003.84
2023-03-26T03:25:08.725Z,1003.81
2023-03-26T03:30:11.660Z,1003.81
2023-03-26T03:35:08.716Z,1003.7
2023-03-26T03:40:08.814Z,1003.58
2023-03-26T03:45:08.882Z,1003.49
2023-03-26T03:50:08.946Z,1003.49
2023-03-26T03:55:08.049Z,1003.39
2023-03-26T04:00:08.108Z,1003.4
2023-03-26T04:05:02.349Z,1003.37
2023-03-26T04:10:02.583Z,1003.37
2023-03-26T04:15:02.738Z,1003.37
2023-03-26T04:20:02.902Z,1003.28
2023-03-26T04:25:03.054Z,1003.13
2023-03-26T04:30:02.417Z,1003.13
2023-03-26T04:35:02.627Z,1003.05
2023-03-26T04:40:02.961Z,1003.0
2023-03-26T04:45:02.247Z,1002.94
2023-03-26T04:50:02.412Z,1002.94
2023-03-26T04:55:02.642Z,1002.81
2023-03-26T05:00:02.809Z,1002.68
2023-03-26T05:05:03.132Z,1002.76
2023-03-26T05:10:02.506Z,1002.76
2023-03-26T05:15:02.686Z,1002.6
2023-03-26T05:20:02.972Z,1002.52
2023-03-26T05:25:02.167Z,1002.49
2023-03-26T05:30:02.586Z,1002.47
2023-03-26T05:35:02.698Z,1002.42
2023-03-26T05:40:03.066Z,1002.28
2023-03-26T05:45:02.319Z,1002.3
2023-03-26T05:50:02.550Z,1002.09
2023-03-26T05:55:02.788Z,1002.0
2023-03-26T06:00:03.123Z,1002.0
2023-03-26T06:05:02.368Z,1001.95
2023-03-26T06:10:02.614Z,1001.9
2023-03-26T06:15:02.931Z,1001.83
2023-03-26T06:20:02.074Z,1001.76
2023-03-26T06:25:02.285Z,1001.63
2023-03-26T06:30:02.753Z,1001.59
2023-03-26T06:35:02.910Z,1001.52
2023-03-26T06:40:03.274Z,1001.44
2023-03-26T06:45:02.692Z,1001.38
2023-03-26T06:50:02.881Z,1001.31
2023-03-26T06:55:03.175Z,1001.33
2023-03-26T07:00:02.368Z,1001.35
2023-03-26T07:05:02.443Z,1001.36
2023-03-26T07:10:02.596Z,1001.41
2023-03-26T07:15:02.740Z,1001.41
2023-03-26T07:20:02.841Z,1001.32
2023-03-26T07:25:03.102Z,1001.33
2023-03-26T07:30:02.224Z,1001.24
2023-03-26T07:35:02.377Z,1001.24
2023-03-26T07:40:02.504Z,1001.23
2023-03-26T07:45:02.627Z,1001.21
2023-03-26T07:50:02.735Z,1001.14
2023-03-26T07:55:02.941Z,1001.12
2023-03-26T08:00:02.100Z,1001.13
2023-03-26T08:05:02.316Z,1001.09
2023-03-26T08:10:02.720Z,1001.0
2023-03-26T08:15:02.998Z,1001.0
2023-03-26T08:20:02.143Z,1001.0
2023-03-26T08:25:12.350Z,1000.98
2023-03-26T08:30:02.588Z,1000.93
2023-03-26T08:35:02.721Z,1000.93
2023-03-26T08:40:02.952Z,1000.91
2023-03-26T08:45:02.114Z,1000.91
2023-03-26T08:50:02.292Z,1000.82
2023-03-26T08:55:02.500Z,1000.82
2023-03-26T09:00:03.134Z,1000.85
2023-03-26T09:05:02.408Z,1000.79
2023-03-26T09:10:02.766Z,1000.81
2023-03-26T09:15:02.896Z,1000.73
2023-03-26T09:20:03.117Z,1000.66
2023-03-26T09:25:02.304Z,1000.74
2023-03-26T09:30:02.633Z,1000.68
2023-03-26T09:35:02.893Z,1000.65
2023-03-26T09:40:03.032Z,1000.57
2023-03-26T09:45:02.369Z,1000.69
2023-03-26T09:50:02.639Z,1000.58
2023-03-26T09:55:02.787Z,1000.57
2023-03-26T10:00:02.906Z,1000.59
2023-03-26T10:05:12.307Z,1000.63
2023-03-26T10:10:02.529Z,1000.59
2023-03-26T10:15:02.906Z,1000.63
2023-03-26T10:20:03.067Z,1000.64
2023-03-26T10:25:02.219Z,1000.63
2023-03-26T10:30:02.464Z,1000.7
2023-03-26T10:35:02.849Z,1000.58
2023-03-26T10:40:03.133Z,1000.62
2023-03-26T10:45:02.372Z,1000.63
2023-03-26T10:50:02.544Z,1000.67
2023-03-26T10:55:02.658Z,1000.6
2023-03-26T11:00:02.970Z,1000.63
2023-03-26T11:05:02.158Z,1000.72
2023-03-26T11:10:02.311Z,1000.67
2023-03-26T11:15:02.510Z,1000.67
2023-03-26T11:20:02.956Z,1000.62
2023-03-26T11:25:04.443Z,1000.53
2023-03-26T11:30:02.992Z,1000.53
2023-03-26T11:35:02.273Z,1000.61
2023-03-26T11:40:02.680Z,1000.61
2023-03-26T11:45:02.795Z,1000.63
2023-03-26T11:50:03.215Z,1000.63
2023-03-26T11:55:02.311Z,1000.63
2023-03-26T12:00:02.604Z,1000.6
2023-03-26T12:05:02.945Z,1000.68
2023-03-26T12:10:17.873Z,1000.67
2023-03-26T12:15:03.024Z,1000.63
2023-03-26T12:20:02.241Z,1000.63
2023-03-26T12:25:02.475Z,1000.69
2023-03-26T12:30:02.816Z,1000.81
2023-03-26T12:35:03.058Z,1000.86
2023-03-26T12:40:12.647Z,1000.88
2023-03-26T12:45:02.433Z,1000.86
2023-03-26T12:50:02.608Z,1000.92
2023-03-26T12:55:02.761Z,1000.89
2023-03-26T13:00:02.636Z,1000.89
2023-03-26T13:05:06.047Z,1001.02
2023-03-26T13:10:03.430Z,1000.97
2023-03-26T13:15:02.548Z,1000.98
2023-03-26T13:20:02.677Z,1000.96
2023-03-26T13:25:03.070Z,1001.05
2023-03-26T13:30:02.258Z,1001.05
2023-03-26T13:35:12.072Z,1001.04
2023-03-26T13:40:02.648Z,1001.04
2023-03-26T13:45:05.079Z,1001.08
2023-03-26T13:50:02.080Z,1001.04
2023-03-26T13:55:02.342Z,1001.12
2023-03-26T14:00:02.469Z,1001.1
2023-03-26T14:05:05.105Z,1001.17
2023-03-26T14:10:02.285Z,1001.24
2023-03-26T14:15:02.451Z,1001.31
2023-03-26T14:20:02.850Z,1001.38
2023-03-26T14:25:03.040Z,1001.42
2023-03-26T14:30:12.097Z,1001.47
2023-03-26T14:35:02.318Z,1001.47
2023-03-26T14:40:02.613Z,1001.58
2023-03-26T14:45:02.807Z,1001.62
2023-03-26T14:50:03.184Z,1001.66
2023-03-26T14:55:02.381Z,1001.71
2023-03-26T15:00:02.527Z,1001.71
2023-03-26T15:05:02.681Z,1001.84
2023-03-26T15:10:02.817Z,1001.91
2023-03-26T15:15:02.947Z,1001.99
2023-03-26T15:20:02.140Z,1002.09
2023-03-26T15:25:02.367Z,1002.15
2023-03-26T15:30:02.570Z,1002.15
2023-03-26T15:35:02.695Z,1002.24
2023-03-26T15:40:07.786Z,1002.31
2023-03-26T15:45:03.076Z,1002.41
2023-03-26T15:50:02.276Z,1002.42
2023-03-26T15:55:02.398Z,1002.45
2023-03-26T16:00:02.536Z,1002.58
2023-03-26T16:05:02.825Z,1002.72
2023-03-26T16:10:03.072Z,1002.86
2023-03-26T16:15:02.362Z,1002.86
2023-03-26T16:20:02.552Z,1002.86
2023-03-26T16:25:02.708Z,1003.12
2023-03-26T16:30:02.646Z,1003.22
2023-03-26T16:35:02.851Z,1003.36
2023-03-26T16:40:03.053Z,1003.5
2023-03-26T16:45:02.536Z,1003.54
2023-03-26T16:50:08.566Z,1003.65
2023-03-26T16:55:02.634Z,1003.79
2023-03-26T17:00:05.963Z,1003.84
2023-03-26T17:05:02.526Z,1003.93
2023-03-26T17:10:02.780Z,1004.08
2023-03-26T17:15:03.009Z,1004.05
2023-03-26T17:20:02.271Z,1004.05
2023-03-26T17:25:11.050Z,1004.4
2023-03-26T17:30:02.188Z,1004.39
2023-03-26T17:35:02.622Z,1004.57
2023-03-26T17:40:02.968Z,1004.71
2023-03-26T17:45:02.215Z,1004.8
2023-03-26T17:50:02.517Z,1005.0
2023-03-26T17:55:02.685Z,1005.07
2023-03-26T18:00:02.881Z,1005.21
2023-03-26T18:05:03.111Z,1005.21
2023-03-26T18:10:02.522Z,1005.42
2023-03-26T18:15:02.600Z,1005.59
2023-03-26T18:20:02.795Z,1005.67
2023-03-26T18:25:04.741Z,1005.75
2023-03-26T18:30:03.386Z,1005.81
2023-03-26T18:35:02.740Z,1005.99
2023-03-26T18:40:03.005Z,1006.06
2023-03-26T18:45:04.699Z,1006.22
2023-03-26T18:50:02.506Z,1006.27
2023-03-26T18:55:02.951Z,1006.42
2023-03-26T19:00:02.228Z,1006.49
2023-03-26T19:05:02.826Z,1006.65
2023-03-26T19:10:03.009Z,1006.65
2023-03-26T19:15:02.241Z,1006.75
2023-03-26T19:20:02.485Z,1006.92
2023-03-26T19:25:02.775Z,1006.81
2023-03-26T19:30:03.091Z,1006.81
2023-03-26T19:35:02.458Z,1007.05
2023-03-26T19:40:02.820Z,1007.27
2023-03-26T19:45:03.092Z,1007.38
2023-03-26T19:50:02.301Z,1007.47
2023-03-26T19:55:12.522Z,1007.6
2023-03-26T20:00:02.758Z,1007.74
2023-03-26T20:05:02.931Z,1007.91
2023-03-26T20:10:02.932Z,1007.94
2023-03-26T20:15:22.526Z,1008.03
2023-03-26T20:20:02.797Z,1008.03
2023-03-26T20:25:13.126Z,1008.32
2023-03-26T20:30:02.342Z,1008.39
2023-03-26T20:35:02.738Z,1008.43
2023-03-26T20:40:02.862Z,1008.43
2023-03-26T20:45:03.116Z,1008.43
2023-03-26T20:50:02.476Z,1008.77
2023-03-26T20:55:02.708Z,1008.67
2023-03-26T21:00:03.148Z,1008.88
2023-03-26T21:05:02.464Z,1008.96
2023-03-26T21:10:02.879Z,1009.04
2023-03-26T21:15:09.948Z,1009.06
2023-03-26T21:20:02.867Z,1009.22
2023-03-26T21:25:03.142Z,1009.25
2023-03-26T21:30:02.591Z,1009.38
2023-03-26T21:35:02.714Z,1009.51
2023-03-26T21:40:02.912Z,1009.51
2023-03-26T21:45:03.199Z,1009.51
2023-03-26T21:50:02.379Z,1009.51
2023-03-26T21:55:02.653Z,1009.92
2023-03-26T22:00:02.864Z,1010.0
2023-03-26T22:05:15.816Z,1010.02
2023-03-26T22:10:08.824Z,1010.14
2023-03-26T22:15:08.892Z,1010.23
2023-03-26T22:20:08.976Z,1010.36
2023-03-26T22:25:08.049Z,1010.39
2023-03-26T22:30:08.086Z,1010.37
2023-03-26T22:35:08.124Z,1010.49
2023-03-26T22:40:08.267Z,1010.51
2023-03-26T22:45:08.346Z,1010.51
2023-03-26T22:50:08.420Z,1010.74
2023-03-26T22:55:08.461Z,1010.78
2023-03-26T23:01:12.787Z,1010.91
2023-03-26T23:05:08.753Z,1011.01
2023-03-26T23:10:08.508Z,1011.13
2023-03-26T23:15:08.583Z,1011.18
2023-03-26T23:20:08.654Z,1011.3
2023-03-26T23:25:08.792Z,1011.37
2023-03-26T23:30:08.836Z,1011.45
2023-03-26T23:35:08.912Z,1011.56
2023-03-26T23:40:09.009Z,1011.63
2023-03-26T23:45:08.138Z,1011.76
2023-03-26T23:50:08.200Z,1011.77
2023-03-26T23:55:08.274Z,1011.82
